Atlanta, GA (30329)

3:53 PM EDT on September 02, 2014 (GMT -0400)
Toco-Merry Hills/Lavista | Change Station
CLOSE
Current Station
Personal Weather Station
Location: Atlanta, GA
Elevation: 968 ft
Nearby Weather Stations

Elev 968 ft 33.82 °N, 84.33 °W | Updated 6 seconds ago

Overcast
Overcast
76.2 °F
Feels Like 77 °F
N
0.0
Wind Variable Wind from SW
Gusts 1.0 mph

Today
High -- | Low -- °F
--% Chance of Precip.
Yesterday
High -- | Low -- °F
Precip. -- in
7:11 AM 8:01 PM
First Quarter, 54% visible
Pressure 30.09 in
Visibility 10.0 miles
Clouds Scattered Clouds 10000 ft
Heat Index 77 °F
Dew Point 71 °F
Humidity 84%
Rainfall 0.00 in
Snow Depth Not available.
UV 6 out of 12
Pollen 9.20 out of 12
Ozone Good
PM2.5 Moderate
Flu Activity Not available.
SPECI KPDK 021946Z 27009KT 10SM -RA SCT100 24/21 A3009 RMK AO2 LTG DSNT ALQDS TSE40 P0000

More Conditions Fewer Conditions

Pressure 30.09 in
Visibility 10.0 miles
Clouds Scattered Clouds 10000 ft
Heat Index 77 °F
Dew Point 71 °F
Humidity 84%
Rainfall 0.00 in
Snow Depth Not available.
UV 6 out of 12
Pollen 9.20 out of 12
Ozone Good
PM2.5 Moderate
Flu Activity Not available.
SPECI KPDK 021946Z 27009KT 10SM -RA SCT100 24/21 A3009 RMK AO2 LTG DSNT ALQDS TSE40 P0000

More Conditions Fewer Conditions

10-Day Weather Forecast

Almanac

Astronomy

Sep. 02, 2014 Rise Set
Actual Time 7:11 AM EDT 8:01 PM EDT
Civil Twilight 6:46 AM EDT 8:26 PM EDT
Nautical Twilight 6:16 AM EDT 8:56 PM EDT
Astronomical Twilight 5:45 AM EDT 9:27 PM EDT
Moon 2:35 PM EDT 12:22 AM EDT
Length of Visible Light 13h 40m
Length of Day
12h 49m
Tomorrow will be 2m 1s shorter.
First Quarter, 54% of the Moon is Illuminated
Today
First Quarter
Sep 8
Full
Sep 15
Last Quarter
Sep 24
New
Oct 1
First Quarter

Today's Extremes

State Highs State Lows

Community

WunderPhotos

Upload Photos

1,749,751 photos uploaded!

WunderBlogs® & News

By Dr. Jeff Masters
Director of Meteorology, Weather Underground
By Kari Strenfel
Meteorologist, Weather Underground
By Christopher C. Burt
Weather Historian, Weather Underground
September 2, 2014
September 2, 2014
September 2, 2014

Nearby

Air Quality

  Air Quality AQ Index Pollutant
Current Moderate
PM2.5
Current Good
OZONE
Tuesday Moderate
OZONE
Tuesday Moderate
PM2.5
Wednesday Moderate
OZONE
Wednesday Moderate
PM2.5

Snow Depth

Station Depth Elevation
No new snow has been reported.

Earthquake Activity

City Distance Mag. Time & Date
No recent earthquake activity has been reported nearby.
Minimum magnitude displayed is 2.5.

Coastal Water Temperatures

Place Temperature
No Stations Reporting

Nearby Weather Stations